Time;durP1;ratioP1;P1;durP2;ratioP2;P2;SDS_P1;SDS_P2;PMS_P1;PMS_P2;Temp;Humidity;BMP_temperature;BMP_pressure;BME280_temperature;BME280_humidity;BME280_pressure;Samples;Min_cycle;Max_cycle;Signal;HPM_P1;HPM_P2
2021/10/06 00:00:33;;;;;;;1.73;1.38;;;18.80;59.90;;;;;;5013839;28;20717;-47
2021/10/06 00:03:04;;;;;;;2.15;1.25;;;18.90;59.90;;;;;;5009976;28;20316;-46
2021/10/06 00:05:35;;;;;;;1.52;1.40;;;18.90;59.80;;;;;;5014038;28;20209;-46
2021/10/06 00:08:05;;;;;;;1.85;1.58;;;18.90;59.70;;;;;;5009930;28;20284;-41
2021/10/06 00:10:36;;;;;;;2.78;1.38;;;18.90;59.70;;;;;;5010488;28;20201;-43
2021/10/06 00:13:08;;;;;;;1.77;1.40;;;19.00;59.60;;;;;;5012782;28;20347;-40
2021/10/06 00:15:42;;;;;;;2.25;1.52;;;19.00;59.60;;;;;;5012414;28;20284;-39
2021/10/06 00:18:22;;;;;;;2.63;1.50;;;19.00;59.60;;;;;;5013810;28;20200;-41
2021/10/06 00:20:54;;;;;;;2.78;1.70;;;19.00;59.50;;;;;;4993134;28;20479;-46
2021/10/06 00:23:24;;;;;;;1.50;1.40;;;19.10;59.50;;;;;;4994196;28;20252;-47
2021/10/06 00:25:54;;;;;;;1.50;1.40;;;19.10;59.40;;;;;;4997480;28;20246;-43
2021/10/06 00:28:26;;;;;;;2.63;1.55;;;19.10;59.40;;;;;;5012587;28;20239;-51
2021/10/06 00:30:58;;;;;;;2.88;1.90;;;19.10;59.40;;;;;;5011021;28;20278;-48
2021/10/06 00:33:29;;;;;;;3.42;1.50;;;19.10;59.40;;;;;;5014083;28;20228;-50
2021/10/06 00:35:59;;;;;;;2.95;1.65;;;19.10;59.40;;;;;;5013525;28;20237;-51
2021/10/06 00:38:30;;;;;;;2.67;1.73;;;19.20;59.50;;;;;;5013087;28;20220;-46
2021/10/06 00:41:00;;;;;;;2.42;1.73;;;19.20;59.50;;;;;;5013018;28;20232;-50
2021/10/06 00:43:30;;;;;;;2.78;1.58;;;19.20;59.60;;;;;;5013795;28;20200;-48
2021/10/06 00:46:04;;;;;;;3.05;1.58;;;19.20;59.60;;;;;;5014035;28;20235;-54
2021/10/06 00:48:34;;;;;;;3.50;1.50;;;19.20;59.60;;;;;;5011911;28;20236;-50
2021/10/06 00:51:05;;;;;;;1.58;1.48;;;19.30;59.70;;;;;;5011800;28;20655;-48
2021/10/06 00:53:37;;;;;;;1.98;1.60;;;19.30;59.50;;;;;;5010183;28;20283;-45
2021/10/06 00:56:08;;;;;;;3.60;1.90;;;19.30;59.40;;;;;;5012300;28;20237;-45
2021/10/06 00:58:39;;;;;;;3.00;1.80;;;19.30;59.40;;;;;;5010384;28;20236;-50
2021/10/06 01:01:11;;;;;;;2.47;1.75;;;19.30;59.40;;;;;;5012512;28;20302;-44
2021/10/06 01:03:42;;;;;;;3.80;2.00;;;19.40;59.40;;;;;;5013236;28;20235;-47
2021/10/06 01:06:12;;;;;;;2.90;1.80;;;19.30;59.20;;;;;;5005236;28;21077;-42
2021/10/06 01:08:44;;;;;;;4.43;1.80;;;19.40;59.30;;;;;;4993781;28;20290;-41
2021/10/06 01:11:14;;;;;;;4.13;1.90;;;19.40;59.30;;;;;;4993361;28;20772;-44
2021/10/06 01:13:44;;;;;;;2.30;1.70;;;19.40;59.30;;;;;;4993766;28;20233;-42
2021/10/06 01:16:17;;;;;;;3.05;1.90;;;19.40;59.20;;;;;;5011822;28;20288;-42
2021/10/06 01:18:48;;;;;;;2.10;1.80;;;19.40;59.30;;;;;;5013139;28;20232;-43
2021/10/06 01:21:20;;;;;;;2.58;1.88;;;19.40;59.20;;;;;;5013160;28;20634;-49
2021/10/06 01:23:54;;;;;;;2.80;1.95;;;19.40;59.20;;;;;;5013250;28;20232;-50
2021/10/06 01:26:24;;;;;;;2.95;1.98;;;19.50;59.30;;;;;;5012455;28;20259;-47
2021/10/06 01:28:55;;;;;;;2.95;2.20;;;19.40;59.30;;;;;;5012639;28;20232;-49
2021/10/06 01:31:30;;;;;;;3.40;1.73;;;19.50;59.30;;;;;;5012556;28;20307;-47
2021/10/06 01:34:01;;;;;;;2.70;1.88;;;19.50;59.30;;;;;;5013031;28;20287;-45
2021/10/06 01:36:35;;;;;;;2.70;1.83;;;19.50;59.20;;;;;;5013435;28;20300;-42
2021/10/06 01:39:06;;;;;;;2.97;1.88;;;19.50;59.20;;;;;;5008651;28;20638;-43
2021/10/06 01:41:37;;;;;;;2.33;1.52;;;19.50;59.20;;;;;;5008483;28;20685;-39
2021/10/06 01:44:08;;;;;;;2.47;2.00;;;19.50;59.20;;;;;;4993319;28;20236;-44
2021/10/06 01:46:39;;;;;;;3.90;1.90;;;19.50;59.10;;;;;;4994621;28;20200;-43
2021/10/06 01:49:10;;;;;;;2.92;2.25;;;19.50;59.00;;;;;;4995693;28;20233;-45
2021/10/06 01:51:43;;;;;;;4.32;2.20;;;19.50;58.90;;;;;;4992554;28;20304;-42
2021/10/06 01:54:15;;;;;;;4.72;2.00;;;19.50;58.90;;;;;;4991409;28;20293;-46
2021/10/06 01:56:45;;;;;;;2.55;1.95;;;19.50;58.80;;;;;;5003864;28;20288;-47
2021/10/06 01:59:16;;;;;;;3.50;2.28;;;19.50;58.80;;;;;;5009418;28;20236;-48
2021/10/06 02:01:47;;;;;;;2.20;2.00;;;19.50;58.80;;;;;;5009864;28;20343;-42
2021/10/06 02:04:18;;;;;;;4.63;2.58;;;19.50;58.80;;;;;;5011622;28;20283;-42
2021/10/06 02:06:52;;;;;;;4.80;2.30;;;19.60;58.80;;;;;;5011697;28;20688;-49
2021/10/06 02:09:23;;;;;;;3.97;2.40;;;19.60;58.90;;;;;;5011518;28;20299;-47
2021/10/06 02:11:53;;;;;;;4.15;2.20;;;19.60;58.90;;;;;;5011718;28;20344;-41
2021/10/06 02:14:24;;;;;;;4.63;2.40;;;19.50;58.90;;;;;;5010612;28;20232;-46
2021/10/06 02:16:54;;;;;;;3.75;2.47;;;19.60;58.90;;;;;;5011825;28;20232;-45
2021/10/06 02:19:26;;;;;;;3.08;2.20;;;19.50;58.90;;;;;;5010105;28;20207;-45
2021/10/06 02:22:02;;;;;;;4.70;2.50;;;19.60;59.00;;;;;;5010509;28;20300;-46
2021/10/06 02:24:32;;;;;;;4.53;2.45;;;19.60;59.00;;;;;;5010198;28;20719;-42
2021/10/06 02:27:03;;;;;;;4.45;2.90;;;19.50;59.00;;;;;;5010806;28;20288;-41
2021/10/06 02:29:35;;;;;;;4.75;2.92;;;19.60;59.00;;;;;;5011767;28;20732;-44
2021/10/06 02:32:06;;;;;;;6.38;3.08;;;19.60;59.00;;;;;;5009564;28;20400;-45
2021/10/06 02:34:37;;;;;;;5.22;2.92;;;19.50;58.90;;;;;;4997783;28;20233;-52
2021/10/06 02:40:08;;;;;;;7.30;3.15;;;19.60;59.00;;;;;;5124540;27;20581;-41
2021/10/06 02:42:41;;;;;;;5.65;3.20;;;19.60;59.30;;;;;;5114838;28;20311;-51
2021/10/06 02:45:13;;;;;;;6.15;2.90;;;19.60;59.40;;;;;;5108667;28;20201;-47
2021/10/06 02:47:46;;;;;;;5.85;3.33;;;19.60;59.30;;;;;;5095626;28;20233;-43
2021/10/06 02:50:20;;;;;;;6.97;3.55;;;19.60;59.40;;;;;;5088826;28;20198;-45
2021/10/06 02:52:51;;;;;;;5.30;2.95;;;19.60;59.60;;;;;;5088443;28;20210;-46
2021/10/06 02:55:24;;;;;;;8.32;3.40;;;19.60;59.70;;;;;;5101138;28;20233;-46
2021/10/06 02:57:56;;;;;;;4.88;3.10;;;19.60;59.70;;;;;;5090374;28;20280;-49
2021/10/06 03:00:26;;;;;;;4.55;3.05;;;19.60;59.70;;;;;;5108333;28;20281;-48
2021/10/06 03:02:56;;;;;;;5.13;3.20;;;19.60;59.70;;;;;;5108456;28;20245;-42
2021/10/06 03:05:30;;;;;;;4.47;2.60;;;19.60;59.70;;;;;;5090583;28;20197;-39
2021/10/06 03:08:01;;;;;;;8.10;3.60;;;19.60;59.70;;;;;;5108721;28;20274;-40
2021/10/06 03:10:33;;;;;;;5.63;3.03;;;19.60;59.70;;;;;;5105404;28;20238;-40
2021/10/06 03:13:04;;;;;;;7.28;3.58;;;19.60;59.70;;;;;;5108513;28;20297;-39
2021/10/06 03:15:34;;;;;;;7.47;3.30;;;19.70;59.70;;;;;;5108557;28;20194;-41
2021/10/06 03:18:06;;;;;;;4.95;2.97;;;19.70;59.80;;;;;;5108286;28;20564;-40
2021/10/06 03:20:38;;;;;;;6.47;2.80;;;19.70;59.90;;;;;;5088491;28;20623;-45
2021/10/06 03:23:08;;;;;;;5.20;2.72;;;19.70;59.80;;;;;;5101552;28;20214;-41
2021/10/06 03:25:40;;;;;;;4.95;2.85;;;19.70;59.80;;;;;;5107239;28;20221;-51
2021/10/06 03:28:12;;;;;;;5.88;2.83;;;19.70;59.90;;;;;;5088518;28;20284;-51
2021/10/06 03:30:43;;;;;;;4.85;2.80;;;19.70;59.90;;;;;;5111988;28;20615;-51
2021/10/06 03:33:13;;;;;;;6.60;3.10;;;19.80;60.00;;;;;;5126544;27;20237;-54
2021/10/06 03:35:45;;;;;;;7.25;3.63;;;19.80;60.00;;;;;;5110327;28;20206;-47
2021/10/06 03:38:16;;;;;;;7.88;3.58;;;19.80;60.00;;;;;;5107369;28;20304;-56
2021/10/06 03:40:50;;;;;;;5.13;2.70;;;19.80;60.00;;;;;;5112749;28;20228;-54
2021/10/06 03:43:21;;;;;;;5.78;3.17;;;19.80;59.80;;;;;;5118407;27;20222;-53
2021/10/06 03:45:51;;;;;;;6.03;3.38;;;19.80;59.80;;;;;;5105516;28;20289;-52
2021/10/06 03:48:28;;;;;;;5.85;3.00;;;19.90;59.80;;;;;;5105550;28;20742;-50
2021/10/06 03:51:00;;;;;;;4.95;3.08;;;19.90;59.80;;;;;;5080391;28;20277;-52
2021/10/06 03:53:30;;;;;;;5.32;3.17;;;20.00;59.80;;;;;;5092733;28;20225;-39
2021/10/06 03:56:02;;;;;;;6.07;2.78;;;20.00;59.80;;;;;;5089519;28;20236;-47
2021/10/06 03:58:34;;;;;;;5.72;3.20;;;20.10;59.70;;;;;;5093291;28;20268;-46
2021/10/06 04:01:05;;;;;;;5.07;3.17;;;20.10;59.70;;;;;;5100188;28;20198;-55
2021/10/06 04:03:36;;;;;;;5.60;3.45;;;20.10;59.70;;;;;;5113160;28;20238;-53
2021/10/06 04:06:07;;;;;;;5.75;2.92;;;20.10;59.70;;;;;;5112696;28;20225;-45
2021/10/06 04:08:37;;;;;;;4.45;3.10;;;20.20;59.70;;;;;;5093775;28;20229;-55
2021/10/06 04:11:12;;;;;;;7.18;3.40;;;20.20;59.60;;;;;;5095178;28;20230;-50
2021/10/06 04:13:43;;;;;;;5.60;3.25;;;20.20;59.50;;;;;;5092075;28;20233;-55
2021/10/06 04:16:13;;;;;;;5.95;2.85;;;20.30;59.50;;;;;;5093346;28;20705;-50
2021/10/06 04:18:44;;;;;;;7.05;3.63;;;20.40;59.50;;;;;;5092597;28;20748;-51
2021/10/06 04:21:14;;;;;;;5.53;3.10;;;20.40;59.50;;;;;;5096330;28;20725;-44
2021/10/06 04:23:45;;;;;;;5.20;3.05;;;20.40;59.50;;;;;;5092220;28;20238;-48
2021/10/06 04:26:18;;;;;;;4.85;3.20;;;20.50;59.50;;;;;;5092691;28;20234;-50
2021/10/06 04:28:50;;;;;;;5.10;2.60;;;20.50;59.60;;;;;;5088674;28;20233;-55
2021/10/06 04:31:20;;;;;;;4.13;2.53;;;20.50;61.40;;;;;;5101790;28;20225;-50
2021/10/06 04:33:52;;;;;;;4.65;2.38;;;20.60;60.90;;;;;;5112350;28;20225;-41
2021/10/06 04:36:24;;;;;;;6.72;2.78;;;20.70;60.70;;;;;;5113649;28;20631;-52
2021/10/06 04:38:55;;;;;;;6.72;2.70;;;20.70;60.50;;;;;;5103532;28;20770;-44
2021/10/06 04:41:30;;;;;;;6.30;2.60;;;20.80;60.10;;;;;;5097492;28;20252;-54
2021/10/06 04:44:01;;;;;;;5.38;2.67;;;20.80;59.90;;;;;;5112676;28;20284;-57
2021/10/06 04:46:34;;;;;;;5.38;2.70;;;20.80;59.70;;;;;;5113562;28;20607;-54
2021/10/06 04:49:05;;;;;;;9.15;2.97;;;20.80;59.50;;;;;;5113617;28;20229;-60
2021/10/06 04:51:38;;;;;;;5.88;2.35;;;20.90;59.40;;;;;;5113184;28;20342;-53
2021/10/06 04:54:10;;;;;;;5.03;3.00;;;20.90;59.30;;;;;;5113061;28;20250;-56
2021/10/06 04:56:42;;;;;;;7.25;2.67;;;20.90;59.20;;;;;;5102086;28;20232;-57
2021/10/06 04:59:14;;;;;;;3.97;2.67;;;20.90;59.10;;;;;;5092400;28;20257;-59
2021/10/06 05:01:45;;;;;;;4.45;2.70;;;20.90;59.00;;;;;;5087985;28;20741;-46
2021/10/06 05:04:16;;;;;;;6.97;3.15;;;20.90;58.80;;;;;;5092126;28;20226;-56
2021/10/06 05:06:46;;;;;;;4.82;2.55;;;21.00;58.90;;;;;;5092472;28;20273;-59
2021/10/06 05:09:18;;;;;;;5.90;2.88;;;21.00;58.90;;;;;;5092742;28;20225;-50
2021/10/06 05:11:50;;;;;;;5.50;2.83;;;20.90;58.80;;;;;;5074677;28;20272;-57
2021/10/06 05:14:20;;;;;;;5.13;2.60;;;21.00;58.90;;;;;;5092139;28;20242;-49
2021/10/06 05:16:52;;;;;;;5.55;2.42;;;21.00;58.80;;;;;;5092532;28;20281;-52
2021/10/06 05:19:23;;;;;;;4.75;2.72;;;20.90;58.70;;;;;;5092351;28;20218;-51
2021/10/06 05:21:55;;;;;;;3.90;2.42;;;21.00;58.70;;;;;;5092671;28;20242;-52
2021/10/06 05:24:26;;;;;;;3.20;2.60;;;21.00;58.70;;;;;;5074914;28;20236;-53
2021/10/06 05:27:00;;;;;;;4.20;2.50;;;21.00;58.60;;;;;;5092877;28;20630;-58
2021/10/06 05:29:31;;;;;;;3.65;2.47;;;21.00;58.60;;;;;;5092341;28;20286;-55
2021/10/06 05:32:04;;;;;;;4.22;2.53;;;21.10;58.50;;;;;;5092331;28;20245;-53
2021/10/06 05:34:34;;;;;;;5.38;2.70;;;21.00;58.50;;;;;;5092433;28;20721;-52
2021/10/06 05:37:05;;;;;;;4.00;2.67;;;21.00;58.50;;;;;;5092802;28;20267;-52
2021/10/06 05:39:35;;;;;;;7.10;3.05;;;21.10;58.40;;;;;;5091981;28;20254;-56
2021/10/06 05:42:07;;;;;;;3.50;2.70;;;21.00;58.30;;;;;;5091573;28;20249;-54
2021/10/06 05:44:39;;;;;;;3.13;2.33;;;21.00;58.30;;;;;;5091609;28;20277;-55
2021/10/06 05:47:09;;;;;;;3.28;2.67;;;21.00;58.30;;;;;;5091640;28;20251;-59
2021/10/06 05:49:40;;;;;;;5.45;2.97;;;21.10;58.30;;;;;;5091099;28;20292;-59
2021/10/06 05:52:10;;;;;;;5.43;2.95;;;21.00;58.20;;;;;;5091508;28;20249;-59
2021/10/06 05:54:41;;;;;;;3.45;2.65;;;21.00;58.20;;;;;;5091923;28;20233;-49
2021/10/06 05:57:14;;;;;;;3.75;2.70;;;21.10;58.30;;;;;;5091952;28;20280;-57
2021/10/06 05:59:47;;;;;;;4.03;3.00;;;21.00;58.30;;;;;;5073558;28;20225;-54
2021/10/06 06:02:18;;;;;;;5.55;3.63;;;21.10;58.30;;;;;;5091341;28;20249;-51
2021/10/06 06:04:50;;;;;;;6.30;3.30;;;21.00;58.30;;;;;;5091081;28;20228;-54
2021/10/06 06:07:21;;;;;;;4.50;3.13;;;21.00;58.30;;;;;;5091555;28;20331;-57
2021/10/06 06:09:58;;;;;;;4.15;2.83;;;21.00;58.30;;;;;;5091077;28;20226;-58
2021/10/06 06:12:30;;;;;;;4.57;2.97;;;21.00;58.30;;;;;;5091002;28;20312;-56
2021/10/06 06:15:01;;;;;;;3.83;2.95;;;21.00;58.20;;;;;;5091585;28;20633;-53
2021/10/06 06:17:36;;;;;;;4.55;3.13;;;21.00;58.10;;;;;;5091321;28;20236;-59
2021/10/06 06:20:10;;;;;;;4.30;2.75;;;21.00;58.10;;;;;;5089636;28;20598;-51
2021/10/06 06:22:40;;;;;;;3.72;2.90;;;21.00;58.10;;;;;;5089972;28;20688;-58
2021/10/06 06:25:12;;;;;;;3.55;2.78;;;21.00;58.00;;;;;;5100259;28;20638;-55
2021/10/06 06:27:47;;;;;;;4.47;3.17;;;21.00;58.00;;;;;;5091143;28;20190;-54
2021/10/06 06:30:18;;;;;;;3.45;2.88;;;20.90;57.90;;;;;;5072554;28;20193;-56
2021/10/06 06:32:48;;;;;;;3.45;2.97;;;20.90;57.90;;;;;;5091487;28;20272;-59
2021/10/06 06:35:19;;;;;;;3.60;2.75;;;21.00;58.00;;;;;;5091964;28;20194;-48
2021/10/06 06:37:51;;;;;;;3.30;2.92;;;20.90;57.90;;;;;;5091206;28;20629;-43
2021/10/06 06:40:23;;;;;;;5.22;2.75;;;20.90;58.00;;;;;;5057790;28;20309;-54
2021/10/06 06:42:58;;;;;;;3.50;2.55;;;20.90;57.90;;;;;;5088757;28;20301;-49
2021/10/06 06:45:28;;;;;;;3.65;2.80;;;20.90;57.90;;;;;;5090933;28;20615;-48
2021/10/06 06:47:58;;;;;;;4.38;3.10;;;20.90;57.90;;;;;;5089795;28;20683;-53
2021/10/06 06:50:30;;;;;;;4.85;2.55;;;20.90;57.90;;;;;;5088764;28;20194;-55
2021/10/06 06:53:01;;;;;;;4.82;3.03;;;20.90;57.90;;;;;;5097498;28;20245;-53
2021/10/06 06:55:31;;;;;;;4.57;3.00;;;20.80;57.80;;;;;;5090639;28;20634;-53
2021/10/06 06:58:06;;;;;;;4.03;2.83;;;20.80;57.90;;;;;;5088941;28;20233;-50
2021/10/06 07:00:37;;;;;;;4.85;2.95;;;20.80;57.80;;;;;;5107591;28;20312;-48
2021/10/06 07:03:07;;;;;;;4.03;3.03;;;20.80;57.80;;;;;;5109733;28;20267;-50
2021/10/06 07:05:40;;;;;;;4.57;3.20;;;20.80;57.90;;;;;;5110862;28;20696;-46
2021/10/06 07:08:11;;;;;;;4.47;3.20;;;20.80;57.90;;;;;;5092107;28;20296;-55
2021/10/06 07:10:42;;;;;;;4.18;2.83;;;20.80;57.90;;;;;;5088209;28;20365;-46
2021/10/06 07:13:14;;;;;;;4.75;3.42;;;20.80;57.90;;;;;;5090173;28;20214;-48
2021/10/06 07:15:45;;;;;;;3.22;2.85;;;20.80;58.00;;;;;;5089054;28;20491;-49
2021/10/06 07:18:16;;;;;;;4.75;3.15;;;20.70;57.90;;;;;;5090777;28;20191;-55
2021/10/06 07:20:49;;;;;;;3.72;3.40;;;20.70;57.80;;;;;;5085711;28;20317;-47
2021/10/06 07:23:19;;;;;;;3.63;3.22;;;20.70;57.90;;;;;;5089498;28;20250;-54
2021/10/06 07:28:34;;;;;;;3.60;3.30;;;20.70;58.00;;;;;;5091249;28;20255;-57
2021/10/06 07:31:05;;;;;;;4.22;3.33;;;20.70;58.00;;;;;;5094021;28;20256;-53
2021/10/06 07:33:37;;;;;;;4.60;3.10;;;20.60;58.00;;;;;;5056020;28;20317;-47
2021/10/06 07:36:08;;;;;;;4.88;3.60;;;20.60;57.90;;;;;;5074343;28;20237;-53
2021/10/06 07:38:39;;;;;;;4.60;3.53;;;20.60;57.90;;;;;;5087260;28;20305;-46
2021/10/06 07:41:10;;;;;;;4.57;3.50;;;20.60;57.90;;;;;;5113824;28;20248;-45
2021/10/06 07:43:43;;;;;;;3.97;3.58;;;20.60;57.90;;;;;;5082478;28;20198;-49
2021/10/06 07:46:13;;;;;;;5.07;3.95;;;20.60;57.90;;;;;;5092623;28;20242;-53
2021/10/06 07:48:45;;;;;;;3.90;3.08;;;20.60;57.90;;;;;;5090816;28;20289;-45
2021/10/06 07:51:15;;;;;;;5.60;3.53;;;20.50;57.90;;;;;;5076561;28;20273;-48
2021/10/06 07:53:45;;;;;;;4.95;3.53;;;20.50;57.90;;;;;;5093723;28;20289;-55
2021/10/06 07:56:16;;;;;;;3.47;3.17;;;20.50;58.40;;;;;;5093717;28;20232;-51
2021/10/06 07:58:48;;;;;;;5.32;3.80;;;20.50;57.80;;;;;;5094825;28;20285;-51
2021/10/06 08:01:19;;;;;;;5.95;3.78;;;20.50;57.80;;;;;;5094230;28;20317;-56
2021/10/06 08:03:50;;;;;;;4.30;3.53;;;20.50;57.80;;;;;;5093196;28;20285;-49
2021/10/06 08:06:21;;;;;;;3.75;3.33;;;20.50;57.80;;;;;;5090881;28;20409;-51
2021/10/06 08:08:54;;;;;;;5.40;3.80;;;20.50;57.80;;;;;;5091797;28;20286;-45
2021/10/06 08:11:24;;;;;;;4.30;3.25;;;20.40;57.70;;;;;;5103384;28;20230;-55
2021/10/06 08:13:58;;;;;;;6.13;3.83;;;20.40;57.80;;;;;;5090908;28;20257;-53
2021/10/06 08:16:29;;;;;;;5.25;3.53;;;20.40;57.80;;;;;;5090452;28;20285;-50
2021/10/06 08:19:00;;;;;;;4.65;3.72;;;20.40;57.80;;;;;;5088331;28;20293;-44
2021/10/06 08:21:31;;;;;;;5.80;3.55;;;20.40;57.80;;;;;;5092645;28;20225;-48
2021/10/06 08:24:03;;;;;;;4.40;3.35;;;20.30;57.70;;;;;;5092367;28;20692;-49
2021/10/06 08:26:33;;;;;;;4.35;3.45;;;20.30;57.80;;;;;;5073250;28;20236;-47
2021/10/06 08:29:06;;;;;;;3.70;3.25;;;20.30;57.70;;;;;;5086987;28;20230;-52
2021/10/06 08:31:37;;;;;;;4.18;3.53;;;20.30;57.80;;;;;;5074932;28;20297;-50
2021/10/06 08:34:08;;;;;;;5.43;3.47;;;20.30;57.70;;;;;;5088558;28;21072;-53
2021/10/06 08:36:38;;;;;;;4.28;3.28;;;20.30;57.70;;;;;;5089269;28;20677;-57
2021/10/06 08:39:16;;;;;;;5.18;3.75;;;20.30;57.70;;;;;;5080663;28;20354;-48
2021/10/06 08:41:47;;;;;;;3.85;3.40;;;20.20;57.70;;;;;;5098824;28;20217;-57
2021/10/06 08:44:23;;;;;;;4.35;3.42;;;20.20;57.70;;;;;;5085588;28;20288;-54
2021/10/06 08:47:00;;;;;;;4.18;3.78;;;20.20;57.30;;;;;;5086549;28;20247;-45
2021/10/06 08:49:31;;;;;;;5.40;3.85;;;20.20;57.80;;;;;;5102908;28;20277;-46
2021/10/06 08:52:02;;;;;;;4.50;3.47;;;20.20;57.70;;;;;;5091836;28;20580;-50
2021/10/06 08:54:33;;;;;;;5.85;3.90;;;20.20;57.90;;;;;;5092702;28;20281;-56
2021/10/06 08:57:03;;;;;;;5.00;4.00;;;20.20;58.50;;;;;;5089467;28;20249;-48
2021/10/06 08:59:37;;;;;;;4.88;3.80;;;20.20;58.60;;;;;;5090224;28;20233;-45
2021/10/06 09:02:13;;;;;;;5.03;3.95;;;20.20;58.50;;;;;;5089791;28;20246;-53
2021/10/06 09:04:44;;;;;;;4.97;3.45;;;20.20;58.30;;;;;;5091119;28;20224;-51
2021/10/06 09:07:14;;;;;;;5.47;4.20;;;20.20;58.20;;;;;;5072266;28;20285;-51
2021/10/06 09:09:47;;;;;;;4.15;3.50;;;20.10;58.20;;;;;;5090155;28;20247;-52
2021/10/06 09:12:18;;;;;;;6.78;4.15;;;20.10;58.20;;;;;;5092847;28;20214;-55
2021/10/06 09:14:53;;;;;;;5.15;4.05;;;20.10;58.10;;;;;;5093093;28;20281;-51
2021/10/06 09:17:24;;;;;;;4.80;3.55;;;20.10;58.00;;;;;;5092705;28;20665;-46
2021/10/06 09:19:56;;;;;;;5.40;3.70;;;20.10;58.00;;;;;;5074269;28;20233;-51
2021/10/06 09:22:27;;;;;;;4.97;4.05;;;20.10;58.00;;;;;;5088502;28;20225;-52
2021/10/06 09:25:02;;;;;;;5.88;3.95;;;20.00;57.90;;;;;;5086725;28;20202;-47
2021/10/06 09:27:33;;;;;;;5.97;3.88;;;20.00;58.00;;;;;;5089577;28;20592;-54
2021/10/06 09:30:07;;;;;;;6.20;4.10;;;20.00;58.00;;;;;;5072240;28;20707;-50
2021/10/06 09:32:38;;;;;;;5.82;3.63;;;20.00;58.00;;;;;;5106318;28;20256;-46
2021/10/06 09:35:11;;;;;;;4.38;3.70;;;20.00;58.00;;;;;;5087398;28;20245;-48
2021/10/06 09:37:45;;;;;;;3.80;3.40;;;19.90;57.90;;;;;;5084519;28;20225;-42
2021/10/06 09:40:16;;;;;;;4.53;3.72;;;19.90;57.90;;;;;;5084157;28;20301;-49
2021/10/06 09:42:50;;;;;;;4.18;3.65;;;19.90;57.90;;;;;;5084135;28;20607;-48
2021/10/06 09:45:29;;;;;;;4.32;3.70;;;19.90;57.90;;;;;;5073892;28;20662;-52
2021/10/06 09:48:03;;;;;;;4.57;3.22;;;19.90;57.90;;;;;;5073659;28;20202;-49
2021/10/06 09:50:34;;;;;;;3.97;3.25;;;19.90;57.90;;;;;;5076910;28;20288;-50
2021/10/06 09:53:15;;;;;;;4.32;3.60;;;19.90;57.90;;;;;;5066010;28;20661;-54
2021/10/06 09:55:54;;;;;;;4.00;3.60;;;19.80;57.90;;;;;;5066402;28;20865;-54
2021/10/06 09:58:25;;;;;;;4.05;3.47;;;19.80;57.90;;;;;;5080027;28;20276;-47
2021/10/06 10:00:57;;;;;;;5.07;3.55;;;19.80;57.80;;;;;;5085446;28;20287;-55
2021/10/06 10:03:28;;;;;;;4.18;3.58;;;19.80;57.90;;;;;;5081327;28;20305;-57
2021/10/06 10:06:00;;;;;;;3.72;3.13;;;19.80;57.80;;;;;;5082764;28;20273;-51
2021/10/06 10:08:30;;;;;;;4.00;3.67;;;19.80;57.80;;;;;;5065737;28;20292;-56
2021/10/06 10:11:00;;;;;;;3.90;3.50;;;19.80;57.80;;;;;;5080352;28;20267;-51
2021/10/06 10:13:31;;;;;;;4.53;3.35;;;19.70;57.70;;;;;;5078352;28;20281;-47
2021/10/06 10:16:03;;;;;;;4.18;3.78;;;19.70;57.80;;;;;;5077812;28;20285;-55
2021/10/06 10:18:37;;;;;;;3.75;3.25;;;19.70;57.70;;;;;;5081204;28;21281;-49
2021/10/06 10:21:08;;;;;;;4.13;3.50;;;19.70;57.70;;;;;;5084154;28;20291;-54
2021/10/06 10:23:39;;;;;;;4.03;3.70;;;19.70;57.80;;;;;;5081268;28;20637;-56
2021/10/06 10:26:09;;;;;;;3.70;3.10;;;19.60;57.70;;;;;;5078176;28;20284;-53
2021/10/06 10:28:44;;;;;;;4.22;3.65;;;19.60;57.70;;;;;;5082770;28;20281;-53
2021/10/06 10:31:18;;;;;;;4.07;3.45;;;19.60;57.80;;;;;;5085368;28;20682;-58
2021/10/06 10:33:49;;;;;;;4.53;3.20;;;19.60;57.70;;;;;;5084135;28;20194;-57
2021/10/06 10:39:52;;;;;;;4.25;3.40;;;19.60;57.70;;;;;;5076060;28;20707;-54
2021/10/06 10:42:26;;;;;;;4.32;3.45;;;19.60;57.70;;;;;;5066835;28;20717;-57
2021/10/06 10:44:56;;;;;;;4.35;3.22;;;19.50;57.60;;;;;;5083743;28;20228;-56
2021/10/06 10:47:29;;;;;;;3.75;3.25;;;19.50;57.60;;;;;;5075512;28;20294;-52
2021/10/06 10:50:12;;;;;;;5.25;3.67;;;19.50;57.60;;;;;;5077746;28;20713;-54
2021/10/06 10:52:51;;;;;;;3.38;3.08;;;19.50;57.60;;;;;;5081177;28;20302;-51
2021/10/06 10:55:45;;;;;;;3.97;3.30;;;19.50;57.60;;;;;;5081275;28;20269;-47
2021/10/06 10:58:40;;;;;;;4.28;3.25;;;19.50;57.60;;;;;;5085079;28;20679;-50
2021/10/06 11:01:14;;;;;;;4.30;3.38;;;19.40;57.60;;;;;;5055451;28;20303;-57
2021/10/06 11:04:13;;;;;;;4.57;3.58;;;19.40;57.60;;;;;;5085394;28;20284;-55
2021/10/06 11:06:45;;;;;;;3.95;3.30;;;19.40;57.70;;;;;;5085144;28;20225;-51
2021/10/06 11:09:43;;;;;;;3.75;3.38;;;19.40;57.60;;;;;;5087392;28;20654;-51
2021/10/06 11:12:40;;;;;;;3.80;3.13;;;19.30;57.70;;;;;;5086406;28;20249;-57
2021/10/06 11:15:38;;;;;;;3.53;3.10;;;19.30;57.60;;;;;;5077792;28;20569;-52
2021/10/06 11:18:21;;;;;;;4.05;3.30;;;19.30;57.60;;;;;;5084272;28;20198;-45
2021/10/06 11:20:58;;;;;;;3.53;3.00;;;19.30;57.60;;;;;;5085679;28;20222;-50
2021/10/06 11:23:53;;;;;;;4.05;3.20;;;19.30;57.60;;;;;;5089900;28;20209;-52
2021/10/06 11:26:37;;;;;;;3.38;3.08;;;19.30;57.60;;;;;;5092021;28;20190;-47
2021/10/06 11:29:10;;;;;;;3.47;3.15;;;19.30;57.70;;;;;;5093949;28;20535;-50
2021/10/06 11:31:42;;;;;;;3.35;3.05;;;19.20;57.60;;;;;;5094299;28;20218;-57
2021/10/06 11:34:20;;;;;;;3.90;3.33;;;19.20;57.60;;;;;;5094738;28;20232;-50
2021/10/06 11:36:55;;;;;;;3.92;3.30;;;19.20;57.60;;;;;;5094783;28;20233;-58
2021/10/06 11:39:30;;;;;;;3.72;3.10;;;19.20;57.60;;;;;;5093670;28;20288;-54
2021/10/06 11:42:02;;;;;;;3.35;2.95;;;19.20;57.60;;;;;;5094491;28;20229;-58
2021/10/06 11:44:33;;;;;;;3.17;2.88;;;19.20;58.20;;;;;;5094721;28;20355;-55
2021/10/06 11:47:10;;;;;;;5.07;3.45;;;19.10;57.50;;;;;;5094465;28;20234;-52
2021/10/06 11:49:41;;;;;;;4.55;3.13;;;19.10;57.60;;;;;;5094563;28;20244;-55
2021/10/06 11:52:13;;;;;;;4.20;3.20;;;19.10;57.60;;;;;;5094616;28;20246;-51
2021/10/06 11:54:44;;;;;;;3.15;2.85;;;19.10;57.60;;;;;;5094218;28;20241;-50
2021/10/06 11:57:17;;;;;;;3.28;2.97;;;19.10;57.60;;;;;;5094451;28;20228;-54
2021/10/06 11:59:48;;;;;;;3.45;3.08;;;19.10;57.60;;;;;;5094720;28;20198;-48
2021/10/06 12:02:18;;;;;;;3.20;2.90;;;19.00;57.60;;;;;;5094315;28;20226;-54
2021/10/06 12:04:49;;;;;;;3.75;2.80;;;19.00;57.60;;;;;;5094467;28;20319;-55
2021/10/06 12:07:25;;;;;;;3.20;2.90;;;19.00;57.60;;;;;;5094030;28;20201;-56
2021/10/06 12:09:58;;;;;;;3.28;3.00;;;19.00;57.60;;;;;;5094115;28;20193;-55
2021/10/06 12:12:29;;;;;;;3.83;3.40;;;19.00;57.60;;;;;;5093622;28;20210;-54
2021/10/06 12:15:02;;;;;;;3.00;2.58;;;19.00;57.60;;;;;;5092606;28;20194;-51
2021/10/06 12:17:33;;;;;;;3.78;3.38;;;19.00;57.60;;;;;;5091834;28;20182;-58
2021/10/06 12:20:03;;;;;;;3.60;2.97;;;19.00;57.60;;;;;;5081849;28;20190;-58
2021/10/06 12:22:36;;;;;;;3.15;2.80;;;19.00;57.60;;;;;;5089537;28;20308;-54
2021/10/06 12:25:09;;;;;;;3.47;3.17;;;18.90;57.50;;;;;;5092204;28;20233;-51
2021/10/06 12:27:41;;;;;;;3.10;2.80;;;18.90;57.60;;;;;;5097805;28;20193;-55
2021/10/06 12:30:14;;;;;;;3.50;3.03;;;18.90;57.50;;;;;;5091786;28;20233;-54
2021/10/06 12:32:45;;;;;;;4.65;3.05;;;18.90;57.60;;;;;;5081657;28;20237;-55
2021/10/06 12:35:16;;;;;;;2.78;2.58;;;18.80;57.60;;;;;;5090444;28;20233;-55
2021/10/06 12:37:54;;;;;;;3.22;2.78;;;18.80;57.50;;;;;;5074430;28;20278;-51
2021/10/06 12:40:36;;;;;;;3.92;2.80;;;18.80;57.60;;;;;;5092326;28;20620;-53
2021/10/06 12:43:10;;;;;;;3.22;2.90;;;18.80;57.60;;;;;;5093131;28;20261;-58
2021/10/06 12:45:55;;;;;;;3.00;2.67;;;18.80;58.20;;;;;;5075498;28;20750;-55
2021/10/06 12:48:39;;;;;;;3.33;2.88;;;18.80;57.50;;;;;;5075101;28;20232;-58
2021/10/06 12:51:10;;;;;;;3.28;2.78;;;18.80;57.60;;;;;;5055059;28;20195;-53
2021/10/06 12:53:55;;;;;;;2.92;2.72;;;18.80;57.60;;;;;;5082291;28;20237;-50
2021/10/06 12:56:31;;;;;;;3.28;2.97;;;18.70;57.60;;;;;;5093276;28;20225;-51
2021/10/06 12:59:03;;;;;;;3.40;3.10;;;18.70;57.60;;;;;;5093390;28;20290;-51
2021/10/06 13:01:36;;;;;;;3.03;2.72;;;18.70;57.60;;;;;;5092994;28;20265;-56
2021/10/06 13:04:09;;;;;;;3.20;2.90;;;18.70;58.00;;;;;;5108594;28;20194;-51
2021/10/06 13:06:47;;;;;;;2.97;2.78;;;18.70;57.60;;;;;;5092979;28;20232;-50
2021/10/06 13:09:20;;;;;;;3.40;3.10;;;18.70;57.60;;;;;;5092341;28;20281;-57
2021/10/06 13:11:50;;;;;;;3.25;2.95;;;18.70;57.60;;;;;;5092454;28;20300;-54
2021/10/06 13:14:20;;;;;;;3.33;3.03;;;18.60;57.60;;;;;;5093100;28;20226;-50
2021/10/06 13:16:52;;;;;;;3.22;2.92;;;18.60;57.60;;;;;;5092682;28;20234;-54
2021/10/06 13:22:07;;;;;;;3.20;2.90;;;18.60;57.70;;;;;;5091882;28;20253;-57
2021/10/06 13:24:46;;;;;;;3.13;2.83;;;18.60;57.70;;;;;;5092341;28;20240;-49
2021/10/06 13:27:20;;;;;;;3.25;2.95;;;18.60;57.70;;;;;;5092825;28;20226;-57